Time;durP1;ratioP1;P1;durP2;ratioP2;P2;SDS_P1;SDS_P2;PMS_P1;PMS_P2;Temp;Humidity;BMP_temperature;BMP_pressure;BME280_temperature;BME280_humidity;BME280_pressure;Samples;Min_cycle;Max_cycle;Signal;HPM_P1;HPM_P2
2022/02/28 00:00:32;;;;;;;89.20;36.00;;;;;;;-2.00;83.89;102188.56;105637;1270;24242;-59
2022/02/28 00:03:10;;;;;;;98.30;36.80;;;;;;;-2.03;83.81;102186.02;105534;1270;27083;-58
2022/02/28 00:05:42;;;;;;;90.40;36.00;;;;;;;-2.04;83.87;102183.73;105659;1270;22553;-58
2022/02/28 00:08:14;;;;;;;93.40;36.70;;;;;;;-2.04;83.89;102188.04;105472;1270;304617;-57
2022/02/28 00:10:46;;;;;;;88.10;34.30;;;;;;;-2.04;83.91;102185.62;105504;1270;23015;-58
2022/02/28 00:13:18;;;;;;;85.10;36.40;;;;;;;-2.03;84.18;102186.41;105580;1270;24451;-58
2022/02/28 00:15:49;;;;;;;92.30;36.70;;;;;;;-2.04;84.02;102192.09;105458;1270;22640;-58
2022/02/28 00:18:20;;;;;;;95.50;36.50;;;;;;;-2.06;83.91;102183.52;105990;1270;22634;-58
2022/02/28 00:20:52;;;;;;;89.60;35.10;;;;;;;-2.05;83.84;102185.73;105947;1270;25635;-57
2022/02/28 00:23:26;;;;;;;86.60;37.70;;;;;;;-2.07;83.69;102183.48;105904;1270;22707;-58
2022/02/28 00:25:57;;;;;;;88.90;36.80;;;;;;;-2.07;83.76;102183.02;106119;1270;22745;-58
2022/02/28 00:28:28;;;;;;;93.00;36.80;;;;;;;-2.08;83.64;102179.92;106163;1270;22650;-58
2022/02/28 00:31:00;;;;;;;97.20;37.50;;;;;;;-2.12;83.64;102179.83;105797;1270;22727;-59
2022/02/28 00:33:31;;;;;;;89.40;35.80;;;;;;;-2.12;83.62;102176.30;106164;1270;22605;-58
2022/02/28 00:36:04;;;;;;;87.90;34.50;;;;;;;-2.13;83.57;102175.73;105961;1270;22849;-60
2022/02/28 00:38:36;;;;;;;90.10;36.90;;;;;;;-2.15;83.49;102179.66;105581;1270;22646;-60
2022/02/28 00:41:08;;;;;;;95.30;38.70;;;;;;;-2.16;83.37;102175.55;105608;1270;24451;-57
2022/02/28 00:43:40;;;;;;;94.30;39.40;;;;;;;-2.17;83.39;102169.44;105590;1271;22724;-57
2022/02/28 00:46:12;;;;;;;90.10;35.20;;;;;;;-2.18;83.30;102171.91;105953;1270;22661;-58
2022/02/28 00:48:43;;;;;;;88.90;34.70;;;;;;;-2.21;83.00;102164.95;105628;1270;25653;-60
2022/02/28 00:51:16;;;;;;;92.80;38.10;;;;;;;-2.22;83.06;102165.92;105834;1270;22610;-58
2022/02/28 00:53:47;;;;;;;94.60;37.00;;;;;;;-2.22;83.03;102166.44;105598;1271;24953;-59
2022/02/28 00:56:19;;;;;;;95.50;35.60;;;;;;;-2.24;83.02;102163.80;105526;1271;24710;-60
2022/02/28 00:58:50;;;;;;;82.90;32.40;;;;;;;-2.28;83.04;102162.30;105602;1270;22735;-58
2022/02/28 01:01:21;;;;;;;90.50;36.20;;;;;;;-2.31;83.27;102159.02;105481;1270;26633;-57
2022/02/28 01:03:53;;;;;;;81.40;34.00;;;;;;;-2.33;83.52;102156.44;105681;1270;25753;-57
2022/02/28 01:06:24;;;;;;;91.30;34.60;;;;;;;-2.37;83.37;102153.91;105523;1270;25688;-58
2022/02/28 01:08:57;;;;;;;93.40;35.30;;;;;;;-2.43;83.36;102152.09;106162;1270;22624;-59
2022/02/28 01:11:28;;;;;;;91.70;35.30;;;;;;;-2.48;83.24;102148.35;106256;1270;22657;-59
2022/02/28 01:14:00;;;;;;;93.30;36.70;;;;;;;-2.51;83.04;102152.78;106269;1271;24390;-58
2022/02/28 01:16:32;;;;;;;95.20;37.10;;;;;;;-2.56;83.29;102150.92;106439;1270;24520;-58
2022/02/28 01:19:04;;;;;;;86.20;34.90;;;;;;;-2.58;83.18;102149.52;106342;1270;23545;-60
2022/02/28 01:21:35;;;;;;;95.10;38.30;;;;;;;-2.61;83.16;102150.11;106307;1270;22629;-61
2022/02/28 01:24:08;;;;;;;87.40;33.10;;;;;;;-2.63;83.05;102146.69;106230;1271;22657;-59
2022/02/28 01:26:39;;;;;;;90.90;36.60;;;;;;;-2.68;83.20;102140.39;106237;1270;22707;-60
2022/02/28 01:29:11;;;;;;;94.80;34.60;;;;;;;-2.70;83.16;102138.27;106207;1270;22621;-59
2022/02/28 01:31:44;;;;;;;87.40;33.30;;;;;;;-2.71;83.09;102137.70;106347;1270;22736;-59
2022/02/28 01:34:15;;;;;;;95.30;35.10;;;;;;;-2.72;83.02;102135.89;106301;1271;24288;-57
2022/02/28 01:36:46;;;;;;;97.50;40.10;;;;;;;-2.72;83.04;102137.20;106156;1270;26862;-58
2022/02/28 01:39:18;;;;;;;84.90;32.90;;;;;;;-2.74;83.18;102134.56;106430;1270;26092;-60
2022/02/28 01:41:50;;;;;;;101.70;38.70;;;;;;;-2.73;83.19;102134.05;106343;1270;25587;-60
2022/02/28 01:44:22;;;;;;;91.90;34.20;;;;;;;-2.70;82.96;102134.98;106383;1270;26083;-60
2022/02/28 01:46:56;;;;;;;83.40;32.90;;;;;;;-2.68;82.83;102133.05;106353;1270;22629;-58
2022/02/28 01:49:27;;;;;;;89.10;35.40;;;;;;;-2.65;82.54;102134.79;106479;1270;24705;-62
2022/02/28 01:51:59;;;;;;;86.90;33.90;;;;;;;-2.64;82.32;102138.77;106497;1270;22719;-60
2022/02/28 01:54:30;;;;;;;78.90;31.00;;;;;;;-2.65;82.29;102138.03;106283;1270;26452;-58
2022/02/28 01:57:02;;;;;;;81.80;32.30;;;;;;;-2.65;82.23;102140.41;106294;1270;22677;-58
2022/02/28 01:59:32;;;;;;;90.80;31.70;;;;;;;-2.64;82.18;102137.15;106429;1270;22729;-62
2022/02/28 02:02:04;;;;;;;84.10;34.60;;;;;;;-2.64;82.15;102135.19;106305;1270;22598;-58
2022/02/28 02:04:36;;;;;;;85.00;32.20;;;;;;;-2.68;82.14;102133.13;106493;1271;24229;-60
2022/02/28 02:07:08;;;;;;;87.70;34.40;;;;;;;-2.72;82.24;102131.67;106249;1270;25606;-58
2022/02/28 02:09:40;;;;;;;86.50;34.40;;;;;;;-2.77;82.20;102125.27;106327;1270;22753;-57
2022/02/28 02:12:14;;;;;;;83.50;32.80;;;;;;;-2.84;82.45;102127.62;106220;1271;22610;-57
2022/02/28 02:14:47;;;;;;;87.80;36.00;;;;;;;-2.91;82.38;102129.98;106409;1271;22874;-58
2022/02/28 02:17:19;;;;;;;86.40;30.90;;;;;;;-2.95;82.30;102135.45;106341;1270;23190;-59
2022/02/28 02:19:55;;;;;;;84.50;33.10;;;;;;;-3.00;82.27;102135.08;106297;1270;25707;-60
2022/02/28 02:22:27;;;;;;;86.20;31.90;;;;;;;-3.03;82.31;102135.44;106557;1270;24170;-58
2022/02/28 02:24:59;;;;;;;83.90;31.80;;;;;;;-3.04;82.24;102135.48;106550;1270;25833;-58
2022/02/28 02:27:30;;;;;;;90.30;31.10;;;;;;;-3.03;82.21;102132.30;106422;1270;24591;-58
2022/02/28 02:30:02;;;;;;;92.10;33.60;;;;;;;-3.01;82.12;102128.06;106227;1270;23197;-58
2022/02/28 02:32:34;;;;;;;84.10;32.10;;;;;;;-3.00;81.87;102133.58;106398;1270;22638;-60
2022/02/28 02:35:05;;;;;;;80.10;30.10;;;;;;;-3.03;81.88;102124.83;106500;1270;24152;-61
2022/02/28 02:37:37;;;;;;;85.40;33.20;;;;;;;-3.02;81.85;102124.98;106397;1270;25601;-58
2022/02/28 02:40:11;;;;;;;82.10;33.00;;;;;;;-3.02;81.58;102124.45;106427;1270;22890;-58
2022/02/28 02:42:43;;;;;;;82.20;33.60;;;;;;;-3.06;81.57;102120.02;106302;1270;22701;-58
2022/02/28 02:45:15;;;;;;;80.60;31.90;;;;;;;-3.13;81.79;102112.24;106259;1270;22900;-59
2022/02/28 02:47:47;;;;;;;79.20;30.20;;;;;;;-3.18;81.96;102106.67;106206;1270;23894;-60
2022/02/28 02:50:20;;;;;;;81.10;31.90;;;;;;;-3.24;82.00;102107.60;106284;1270;25598;-59
2022/02/28 02:52:52;;;;;;;78.60;31.60;;;;;;;-3.27;82.15;102106.31;106249;1270;22610;-57
2022/02/28 02:55:23;;;;;;;80.50;30.50;;;;;;;-3.28;82.12;102110.25;106322;1270;24097;-57
2022/02/28 02:57:55;;;;;;;77.10;31.10;;;;;;;-3.32;81.92;102111.22;106138;1270;22661;-59
2022/02/28 03:00:28;;;;;;;79.30;30.70;;;;;;;-3.34;81.92;102109.35;106307;1270;26117;-62
2022/02/28 03:03:00;;;;;;;79.40;28.90;;;;;;;-3.33;81.77;102112.30;106360;1270;22586;-58
2022/02/28 03:05:32;;;;;;;77.30;28.60;;;;;;;-3.31;81.64;102117.45;106326;1270;22689;-57
2022/02/28 03:08:04;;;;;;;78.90;30.40;;;;;;;-3.29;81.54;102118.52;106360;1270;25532;-61
2022/02/28 03:10:36;;;;;;;81.40;30.70;;;;;;;-3.28;81.53;102117.77;107002;1270;25516;-59
2022/02/28 03:13:09;;;;;;;74.80;29.50;;;;;;;-3.27;81.32;102118.19;106420;1271;22890;-58
2022/02/28 03:15:41;;;;;;;69.70;26.60;;;;;;;-3.26;81.15;102120.24;106265;1270;26055;-60
2022/02/28 03:18:12;;;;;;;65.90;28.30;;;;;;;-3.27;80.93;102116.21;106340;1270;23835;-59
2022/02/28 03:20:44;;;;;;;71.20;25.60;;;;;;;-3.28;80.95;102119.02;106243;1270;22822;-61
2022/02/28 03:23:15;;;;;;;74.50;27.70;;;;;;;-3.26;80.89;102119.13;106079;1270;22607;-60
2022/02/28 03:25:46;;;;;;;68.20;28.40;;;;;;;-3.29;80.64;102120.05;105971;1270;22743;-61
2022/02/28 03:28:19;;;;;;;72.10;28.50;;;;;;;-3.30;80.68;102118.47;106277;1270;22660;-59
2022/02/28 03:30:50;;;;;;;73.20;26.40;;;;;;;-3.31;80.67;102118.45;106266;1270;22746;-59
2022/02/28 03:33:23;;;;;;;73.90;28.90;;;;;;;-3.33;80.56;102119.94;106253;1270;25733;-59
2022/02/28 03:35:55;;;;;;;78.80;27.90;;;;;;;-3.38;80.56;102120.29;106287;1270;22814;-59
2022/02/28 03:38:26;;;;;;;75.80;29.10;;;;;;;-3.44;80.70;102116.98;106376;1270;22842;-59
2022/02/28 03:40:59;;;;;;;71.70;27.00;;;;;;;-3.44;81.05;102115.42;106358;1270;24107;-56
2022/02/28 03:43:30;;;;;;;72.90;28.90;;;;;;;-3.46;81.30;102113.64;106420;1270;22816;-59
2022/02/28 03:46:03;;;;;;;71.70;28.60;;;;;;;-3.49;81.32;102113.85;106361;1271;22619;-61
2022/02/28 03:48:34;;;;;;;68.50;26.30;;;;;;;-3.50;81.50;102117.77;106371;1270;22794;-58
2022/02/28 03:51:07;;;;;;;65.70;27.40;;;;;;;-3.51;81.67;102120.16;106167;1270;25508;-58
2022/02/28 03:53:38;;;;;;;70.00;27.00;;;;;;;-3.51;81.70;102122.69;106290;1270;23145;-59
2022/02/28 03:56:10;;;;;;;69.20;25.00;;;;;;;-3.49;81.72;102122.80;106245;1271;24281;-60
2022/02/28 03:58:42;;;;;;;66.20;26.10;;;;;;;-3.48;81.59;102125.77;106317;1271;24239;-61
2022/02/28 04:01:13;;;;;;;63.20;25.10;;;;;;;-3.48;81.37;102127.01;106324;1270;22822;-59
2022/02/28 04:03:45;;;;;;;63.10;24.40;;;;;;;-3.46;81.40;102132.67;106176;1270;24488;-58
2022/02/28 04:06:17;;;;;;;60.20;24.30;;;;;;;-3.44;81.16;102131.73;106240;1270;22708;-58
2022/02/28 04:08:50;;;;;;;56.30;24.60;;;;;;;-3.43;81.26;102130.77;106125;1270;26141;-59
2022/02/28 04:11:22;;;;;;;66.20;24.40;;;;;;;-3.42;80.98;102131.65;106223;1271;22735;-58
2022/02/28 04:13:54;;;;;;;70.00;27.90;;;;;;;-3.44;80.89;102124.54;106347;1270;22705;-59
2022/02/28 04:16:27;;;;;;;58.50;22.30;;;;;;;-3.49;80.89;102127.11;106263;1271;24193;-57
2022/02/28 04:18:59;;;;;;;61.40;24.50;;;;;;;-3.52;80.82;102127.48;106539;1270;22634;-60
2022/02/28 04:21:31;;;;;;;67.60;23.00;;;;;;;-3.53;80.82;102123.31;106358;1270;22675;-59
2022/02/28 04:24:03;;;;;;;63.60;23.30;;;;;;;-3.56;80.72;102117.81;106291;1270;22641;-59
2022/02/28 04:26:36;;;;;;;61.00;23.20;;;;;;;-3.60;80.74;102111.29;106287;1270;22686;-61
2022/02/28 04:29:07;;;;;;;65.70;23.20;;;;;;;-3.62;80.63;102116.85;106352;1271;26256;-60
2022/02/28 04:31:40;;;;;;;55.60;23.30;;;;;;;-3.63;80.80;102118.91;106190;1271;22855;-57
2022/02/28 04:34:11;;;;;;;64.40;23.80;;;;;;;-3.63;80.69;102122.71;106322;1271;22759;-58
2022/02/28 04:36:43;;;;;;;62.70;23.10;;;;;;;-3.63;80.84;102123.64;106271;1270;22833;-58
2022/02/28 04:39:17;;;;;;;76.20;26.00;;;;;;;-3.66;80.77;102119.04;106345;1270;22598;-60
2022/02/28 04:41:48;;;;;;;67.90;23.80;;;;;;;-3.67;80.50;102121.11;106255;1271;23373;-62
2022/02/28 04:44:20;;;;;;;59.30;23.10;;;;;;;-3.69;80.57;102116.59;106455;1270;24491;-59
2022/02/28 04:46:51;;;;;;;61.00;24.60;;;;;;;-3.69;80.74;102118.17;106266;1270;25646;-60
2022/02/28 04:49:23;;;;;;;69.80;25.20;;;;;;;-3.68;80.91;102124.33;106171;1271;23434;-58
2022/02/28 04:51:55;;;;;;;77.10;30.60;;;;;;;-3.69;80.63;102123.38;106300;1271;26927;-58
2022/02/28 04:54:29;;;;;;;77.10;31.50;;;;;;;-3.75;80.44;102121.90;106314;1271;25702;-60
2022/02/28 04:57:01;;;;;;;80.40;34.30;;;;;;;-3.79;80.65;102123.55;106293;1270;22984;-57
2022/02/28 04:59:33;;;;;;;74.00;32.80;;;;;;;-3.80;80.74;102128.44;106357;1270;25642;-57
2022/02/28 05:02:05;;;;;;;95.20;38.60;;;;;;;-3.83;81.02;102127.25;106222;1271;23254;-57
2022/02/28 05:04:37;;;;;;;107.90;42.80;;;;;;;-3.84;81.32;102125.34;106315;1271;24428;-59
2022/02/28 05:07:08;;;;;;;96.90;40.20;;;;;;;-3.84;81.02;102124.15;106331;1270;22535;-58
2022/02/28 05:09:40;;;;;;;110.40;42.70;;;;;;;-3.86;81.03;102124.41;106155;1271;22681;-56
2022/02/28 05:12:12;;;;;;;102.50;39.40;;;;;;;-3.87;81.19;102132.01;106399;1270;22647;-56
2022/02/28 05:14:43;;;;;;;101.20;39.80;;;;;;;-3.87;81.41;102128.05;106364;1271;22554;-59
2022/02/28 05:17:15;;;;;;;73.20;26.70;;;;;;;-3.86;81.22;102126.82;106382;1271;22661;-58
2022/02/28 05:19:47;;;;;;;84.90;31.00;;;;;;;-3.84;81.81;102126.04;106222;1271;22781;-60
2022/02/28 05:22:18;;;;;;;80.30;32.50;;;;;;;-3.83;81.42;102125.83;106413;1270;25760;-60
2022/02/28 05:24:50;;;;;;;116.60;47.70;;;;;;;-3.85;81.51;102126.17;106250;1271;25514;-59
2022/02/28 05:27:21;;;;;;;104.20;41.10;;;;;;;-3.85;81.47;102126.63;106301;1271;22697;-58
2022/02/28 05:29:52;;;;;;;104.30;40.20;;;;;;;-3.86;81.26;102136.58;106243;1271;22793;-60
2022/02/28 05:32:23;;;;;;;92.40;33.80;;;;;;;-3.86;81.05;102141.23;106543;1271;22791;-59
2022/02/28 05:34:55;;;;;;;80.60;32.90;;;;;;;-3.88;80.83;102136.66;106253;1271;24370;-59
2022/02/28 05:37:28;;;;;;;85.00;33.20;;;;;;;-3.89;80.90;102140.66;106562;1271;25535;-60
2022/02/28 05:40:00;;;;;;;101.60;37.20;;;;;;;-3.89;81.26;102144.88;106223;1271;22671;-59
2022/02/28 05:42:31;;;;;;;179.00;75.50;;;;;;;-3.88;81.73;102141.42;106481;1271;22766;-61
2022/02/28 05:45:02;;;;;;;141.30;62.40;;;;;;;-3.87;81.62;102142.84;106888;1270;22609;-61
2022/02/28 05:47:34;;;;;;;111.70;49.30;;;;;;;-3.86;81.85;102145.69;106082;1271;22717;-58
2022/02/28 05:50:07;;;;;;;111.30;45.10;;;;;;;-3.85;81.60;102143.96;106120;1271;23124;-61
2022/02/28 05:52:38;;;;;;;84.60;34.80;;;;;;;-3.83;81.35;102144.63;106319;1271;22576;-59
2022/02/28 05:55:11;;;;;;;83.10;33.20;;;;;;;-3.84;81.39;102147.35;106284;1271;22551;-58
2022/02/28 05:57:42;;;;;;;96.50;39.80;;;;;;;-3.85;81.24;102151.66;106370;1270;24227;-59
2022/02/28 06:00:16;;;;;;;100.10;40.70;;;;;;;-3.85;81.19;102151.24;106470;1271;23004;-57
2022/02/28 06:02:48;;;;;;;127.90;53.40;;;;;;;-3.84;81.02;102155.27;106306;1271;25676;-59
2022/02/28 06:05:20;;;;;;;113.10;48.90;;;;;;;-3.85;81.10;102154.23;106610;1273;22591;-57
2022/02/28 06:07:52;;;;;;;115.50;49.40;;;;;;;-3.86;80.96;102153.56;105903;1270;22805;-59
2022/02/28 06:10:25;;;;;;;113.90;47.40;;;;;;;-3.89;80.97;102147.23;106342;1271;23016;-58
2022/02/28 06:12:56;;;;;;;107.10;45.50;;;;;;;-3.90;80.95;102146.80;106572;1270;22703;-63
2022/02/28 06:15:28;;;;;;;132.20;58.40;;;;;;;-3.86;81.17;102152.31;106264;1271;24337;-58
2022/02/28 06:18:02;;;;;;;100.80;44.40;;;;;;;-3.83;81.35;102151.74;106051;1271;26905;-57
2022/02/28 06:20:33;;;;;;;129.90;59.90;;;;;;;-3.80;81.54;102151.67;105715;1271;22831;-56
2022/02/28 06:23:04;;;;;;;109.10;51.70;;;;;;;-3.78;81.67;102153.55;105791;1271;22551;-58
2022/02/28 06:25:35;;;;;;;89.90;41.70;;;;;;;-3.75;82.11;102158.34;105680;1271;24384;-57
2022/02/28 06:28:07;;;;;;;70.10;31.10;;;;;;;-3.71;82.24;102159.17;105493;1271;22860;-57
2022/02/28 06:30:38;;;;;;;83.70;40.20;;;;;;;-3.67;82.44;102160.35;105580;1271;24482;-57
2022/02/28 06:33:09;;;;;;;95.30;46.50;;;;;;;-3.62;82.54;102157.70;105573;1271;25587;-57
2022/02/28 06:35:44;;;;;;;134.60;61.70;;;;;;;-3.57;82.67;102161.92;105545;1271;22676;-56
2022/02/28 06:38:15;;;;;;;100.50;44.20;;;;;;;-3.52;82.68;102165.39;105609;1271;22871;-57
2022/02/28 06:40:47;;;;;;;123.60;53.80;;;;;;;-3.46;82.87;102164.82;105593;1271;25685;-58
2022/02/28 06:43:20;;;;;;;140.00;57.20;;;;;;;-3.40;82.88;102166.84;106374;1271;23511;-58
2022/02/28 06:45:53;;;;;;;179.10;76.40;;;;;;;-3.35;82.78;102167.45;105654;1271;25954;-58
2022/02/28 06:48:25;;;;;;;160.60;73.40;;;;;;;-3.30;82.95;102171.14;105988;1271;22594;-57
2022/02/28 06:50:58;;;;;;;148.20;67.70;;;;;;;-3.25;82.87;102174.18;105947;1271;22704;-58
2022/02/28 06:53:29;;;;;;;111.90;47.60;;;;;;;-3.21;82.89;102175.75;105733;1271;24266;-58
2022/02/28 06:56:00;;;;;;;101.80;44.90;;;;;;;-3.15;82.90;102175.05;105677;1271;24308;-56
2022/02/28 06:58:31;;;;;;;109.60;51.00;;;;;;;-3.11;83.08;102178.42;105595;1271;22669;-56
2022/02/28 07:01:03;;;;;;;100.50;44.50;;;;;;;-3.05;83.03;102179.95;105917;1271;24523;-56
2022/02/28 07:03:34;;;;;;;143.40;59.60;;;;;;;-2.99;82.99;102183.64;105800;1271;25628;-57
2022/02/28 07:06:07;;;;;;;132.10;53.70;;;;;;;-2.93;83.21;102190.10;106085;1271;25531;-58
2022/02/28 07:08:39;;;;;;;83.50;35.20;;;;;;;-2.87;83.03;102189.44;105835;1271;22857;-56
2022/02/28 07:11:10;;;;;;;63.00;25.60;;;;;;;-2.82;82.97;102191.11;105605;1271;22660;-57
2022/02/28 07:13:41;;;;;;;76.40;32.70;;;;;;;-2.75;82.92;102195.92;105716;1271;24277;-58
2022/02/28 07:16:12;;;;;;;70.20;29.80;;;;;;;-2.69;82.95;102198.16;105614;1271;24283;-57
2022/02/28 07:18:44;;;;;;;86.60;34.10;;;;;;;-2.63;82.89;102201.01;106023;1271;25559;-59
2022/02/28 07:21:15;;;;;;;127.30;47.80;;;;;;;-2.57;82.82;102201.98;105806;1271;22665;-57
2022/02/28 07:23:46;;;;;;;103.30;39.00;;;;;;;-2.52;82.89;102203.61;105635;1271;25356;-57
2022/02/28 07:26:18;;;;;;;64.50;25.30;;;;;;;-2.47;82.87;102198.70;106566;1270;22760;-55
2022/02/28 07:28:50;;;;;;;61.80;25.30;;;;;;;-2.41;82.42;102204.10;105866;1271;22703;-57
2022/02/28 07:31:21;;;;;;;71.30;28.90;;;;;;;-2.37;82.50;102195.41;105982;1271;23517;-58
2022/02/28 07:33:53;;;;;;;56.70;20.50;;;;;;;-2.32;82.59;102197.36;105931;1274;22699;-58
2022/02/28 07:36:26;;;;;;;49.00;20.70;;;;;;;-2.27;82.27;102199.92;105916;1271;24392;-58
2022/02/28 07:38:57;;;;;;;43.80;19.10;;;;;;;-2.21;82.32;102200.41;106241;1271;22739;-58
2022/02/28 07:41:30;;;;;;;46.20;18.30;;;;;;;-2.16;82.26;102205.66;105430;1271;23614;-58
2022/02/28 07:44:01;;;;;;;46.80;19.70;;;;;;;-2.12;82.15;102205.71;109731;1268;22486;-59
2022/02/28 07:46:32;;;;;;;44.40;18.90;;;;;;;-2.06;82.23;102209.09;105952;1271;25626;-57
2022/02/28 07:49:03;;;;;;;46.20;18.90;;;;;;;-2.01;82.17;102211.36;105652;1271;22767;-58
2022/02/28 07:51:35;;;;;;;44.60;19.00;;;;;;;-1.95;82.16;102213.71;105961;1271;25787;-58
2022/02/28 07:54:06;;;;;;;38.40;14.00;;;;;;;-1.90;81.98;102217.00;106044;1271;24306;-59
2022/02/28 07:56:38;;;;;;;37.40;14.50;;;;;;;-1.84;81.71;102221.77;105769;1271;25585;-59
2022/02/28 07:59:09;;;;;;;42.10;17.60;;;;;;;-1.79;81.79;102220.05;106075;1271;22687;-59
2022/02/28 08:01:41;;;;;;;37.60;13.50;;;;;;;-1.74;81.72;102226.99;105708;1271;22813;-57
2022/02/28 08:04:12;;;;;;;43.20;15.70;;;;;;;-1.70;81.52;102228.45;105676;1270;24278;-56
2022/02/28 08:06:44;;;;;;;43.20;16.00;;;;;;;-1.64;81.51;102227.98;105977;1271;22892;-57
2022/02/28 08:09:16;;;;;;;37.50;14.90;;;;;;;-1.58;81.48;102229.23;105745;1271;24411;-55
2022/02/28 08:11:48;;;;;;;39.70;14.90;;;;;;;-1.54;81.28;102230.91;105758;1271;22669;-58
2022/02/28 08:14:19;;;;;;;43.60;16.70;;;;;;;-1.50;81.13;102229.77;105744;1271;25677;-57
2022/02/28 08:16:50;;;;;;;35.70;12.70;;;;;;;-1.46;81.18;102232.70;105776;1271;22607;-58
2022/02/28 08:19:22;;;;;;;40.30;13.80;;;;;;;-1.43;81.20;102231.96;105692;1271;24387;-59
2022/02/28 08:21:53;;;;;;;32.30;12.30;;;;;;;-1.39;81.12;102230.80;105718;1271;22768;-58
2022/02/28 08:24:25;;;;;;;34.20;13.10;;;;;;;-1.33;81.28;102228.33;105638;1271;27376;-58
2022/02/28 08:26:56;;;;;;;40.50;13.00;;;;;;;-1.27;81.01;102230.81;105726;1270;24932;-59
2022/02/28 08:29:27;;;;;;;33.30;12.00;;;;;;;-1.22;80.97;102232.35;105791;1270;23121;-58
2022/02/28 08:31:59;;;;;;;31.20;12.50;;;;;;;-1.20;80.50;102232.89;105853;1271;22864;-59
2022/02/28 08:34:30;;;;;;;36.40;14.80;;;;;;;-1.17;80.89;102228.11;106211;1270;24243;-58
2022/02/28 08:37:02;;;;;;;41.40;15.50;;;;;;;-1.11;81.02;102230.32;105860;1271;22789;-58
2022/02/28 08:39:33;;;;;;;33.80;15.10;;;;;;;-1.04;80.84;102226.27;105882;1271;26988;-59
2022/02/28 08:42:06;;;;;;;34.70;12.90;;;;;;;-0.99;80.79;102228.50;105898;1271;24251;-60
2022/02/28 08:44:38;;;;;;;34.30;12.20;;;;;;;-0.93;80.77;102230.23;105773;1270;22658;-59
2022/02/28 08:47:10;;;;;;;36.20;15.40;;;;;;;-0.88;80.53;102230.43;105645;1271;23068;-58
2022/02/28 08:49:41;;;;;;;31.80;12.80;;;;;;;-0.83;80.41;102233.92;105698;1271;22702;-56
2022/02/28 08:52:14;;;;;;;31.30;12.60;;;;;;;-0.80;79.89;102236.13;105586;1271;23291;-59
2022/02/28 08:54:46;;;;;;;36.90;13.20;;;;;;;-0.76;79.93;102237.08;105694;1270;25014;-58
2022/02/28 08:57:17;;;;;;;28.60;9.50;;;;;;;-0.70;79.78;102240.91;105854;1271;25632;-58
2022/02/28 08:59:49;;;;;;;34.60;12.30;;;;;;;-0.63;79.32;102245.30;106043;1271;25349;-58
2022/02/28 09:02:21;;;;;;;35.00;13.50;;;;;;;-0.55;79.67;102248.00;107812;1270;24296;-58
2022/02/28 09:04:53;;;;;;;31.50;12.50;;;;;;;-0.47;79.61;102249.79;105802;1270;25626;-59
2022/02/28 09:07:25;;;;;;;34.40;13.80;;;;;;;-0.41;79.52;102249.98;105663;1271;25727;-58
2022/02/28 09:09:56;;;;;;;34.60;15.00;;;;;;;-0.39;79.13;102250.38;105783;1270;24229;-58
2022/02/28 09:12:28;;;;;;;30.60;12.80;;;;;;;-0.35;79.18;102250.30;105746;1271;22833;-58
2022/02/28 09:14:59;;;;;;;33.90;11.70;;;;;;;-0.30;79.06;102247.30;105833;1270;26847;-58
2022/02/28 09:17:32;;;;;;;32.70;12.50;;;;;;;-0.23;78.91;102250.66;105901;1271;24523;-57
2022/02/28 09:20:05;;;;;;;30.30;11.70;;;;;;;-0.17;78.82;102248.08;105823;1270;22573;-59
2022/02/28 09:22:38;;;;;;;26.50;10.70;;;;;;;-0.11;78.39;102246.49;106267;1271;22834;-57
2022/02/28 09:25:11;;;;;;;38.20;11.80;;;;;;;-0.06;78.44;102253.50;105965;1271;27032;-58
2022/02/28 09:27:43;;;;;;;24.60;10.20;;;;;;;0.00;78.25;102250.73;106019;1270;22836;-58
2022/02/28 09:30:16;;;;;;;22.70;7.90;;;;;;;0.06;76.87;102250.22;105795;1270;23970;-57
2022/02/28 09:32:48;;;;;;;26.70;7.60;;;;;;;0.12;76.84;102250.67;106150;1270;26407;-58
2022/02/28 09:35:20;;;;;;;25.70;8.70;;;;;;;0.16;76.72;102252.41;105668;1270;22616;-58
2022/02/28 09:37:52;;;;;;;23.40;7.90;;;;;;;0.19;76.93;102250.89;105708;1271;22559;-57
2022/02/28 09:40:27;;;;;;;27.30;9.20;;;;;;;0.19;76.97;102254.13;105717;1270;25476;-58
2022/02/28 09:43:02;;;;;;;28.50;9.80;;;;;;;0.21;76.68;102248.13;106216;1270;25961;-57
2022/02/28 09:45:34;;;;;;;24.00;7.70;;;;;;;0.26;76.72;102248.14;105838;1271;24552;-56
2022/02/28 09:48:08;;;;;;;23.40;6.60;;;;;;;0.30;76.18;102249.64;105812;1270;22628;-58
2022/02/28 09:50:40;;;;;;;20.70;6.10;;;;;;;0.36;76.04;102248.99;105784;1271;22701;-56
2022/02/28 09:53:12;;;;;;;21.80;7.90;;;;;;;0.40;75.83;102245.70;105869;1270;23018;-57
2022/02/28 09:55:43;;;;;;;27.00;7.60;;;;;;;0.46;76.50;102244.48;105197;1270;24231;-58
2022/02/28 09:58:15;;;;;;;22.10;7.80;;;;;;;0.50;76.04;102242.38;106604;1270;25630;-58
2022/02/28 10:00:51;;;;;;;21.00;6.20;;;;;;;0.57;75.57;102243.45;109712;1270;23205;-59
2022/02/28 10:03:22;;;;;;;24.20;7.10;;;;;;;0.64;75.73;102244.62;106863;1270;22548;-57
2022/02/28 10:05:59;;;;;;;26.80;6.40;;;;;;;0.68;75.46;102246.64;105480;1271;24309;-56
2022/02/28 10:08:39;;;;;;;21.20;5.90;;;;;;;0.71;74.88;102250.31;105650;1270;22777;-58
2022/02/28 10:11:25;;;;;;;19.60;3.90;;;;;;;0.75;73.81;102252.52;105589;1271;25500;-59
2022/02/28 10:13:58;;;;;;;17.40;3.90;;;;;;;0.79;73.38;102252.23;105787;1270;25496;-58
2022/02/28 10:16:38;;;;;;;13.00;2.40;;;;;;;0.84;73.42;102256.30;105850;1270;24313;-59
2022/02/28 10:19:12;;;;;;;17.30;4.20;;;;;;;0.91;72.30;102256.20;105589;1270;22691;-57
2022/02/28 10:21:47;;;;;;;14.80;3.50;;;;;;;0.96;72.96;102257.79;105615;1270;24449;-58
2022/02/28 10:24:22;;;;;;;15.60;3.80;;;;;;;0.98;72.05;102257.19;105636;1271;25579;-58
2022/02/28 10:26:57;;;;;;;20.00;3.60;;;;;;;1.00;71.72;102257.23;105722;1270;25698;-57
2022/02/28 10:29:30;;;;;;;12.30;2.20;;;;;;;1.02;71.32;102256.48;105537;1270;23990;-58
2022/02/28 10:32:04;;;;;;;13.00;3.90;;;;;;;1.05;70.64;102256.54;105725;1270;22550;-58
2022/02/28 10:35:59;;;;;;;11.70;2.90;;;;;;;1.08;70.51;102257.54;105527;1270;25401;-58
2022/02/28 10:37:30;;;;;;;10.50;1.70;;;;;;;1.13;68.75;102260.39;105552;1271;24237;-58
2022/02/28 10:40:03;;;;;;;9.90;1.90;;;;;;;1.19;69.51;102263.06;105544;1271;25694;-56
2022/02/28 10:42:47;;;;;;;10.30;1.50;;;;;;;1.23;69.81;102261.88;105539;1270;22645;-57
2022/02/28 10:45:25;;;;;;;9.50;1.60;;;;;;;1.23;69.31;102260.87;105834;1270;22571;-59
2022/02/28 10:47:57;;;;;;;7.30;1.00;;;;;;;1.27;67.70;102262.02;105755;1271;26830;-58
2022/02/28 10:50:40;;;;;;;6.80;0.90;;;;;;;1.29;67.14;102260.73;105709;1271;24381;-59
2022/02/28 10:53:14;;;;;;;5.80;1.10;;;;;;;1.32;67.13;102263.54;106136;1271;25388;-59
2022/02/28 10:55:48;;;;;;;3.80;0.70;;;;;;;1.35;65.36;102262.02;105686;1270;22650;-58
2022/02/28 10:58:24;;;;;;;6.50;0.90;;;;;;;1.37;64.54;102264.33;105581;1271;23016;-58
2022/02/28 11:00:59;;;;;;;9.70;1.40;;;;;;;1.41;65.57;102259.29;105713;1270;24323;-58
2022/02/28 11:03:44;;;;;;;12.30;2.30;;;;;;;1.42;66.97;102256.00;105513;1270;25331;-60
2022/02/28 11:06:22;;;;;;;10.80;1.70;;;;;;;1.42;66.98;102255.29;105675;1270;25391;-59
2022/02/28 11:08:54;;;;;;;6.30;1.20;;;;;;;1.42;65.80;102257.17;105938;1270;23049;-58
2022/02/28 11:11:26;;;;;;;24.00;7.80;;;;;;;1.45;65.74;102254.16;105818;1270;23231;-57
2022/02/28 11:13:57;;;;;;;12.80;3.30;;;;;;;1.46;65.51;102256.85;105870;1270;22673;-58
2022/02/28 11:16:33;;;;;;;10.90;1.80;;;;;;;1.48;65.64;102254.84;105664;1270;23502;-59
2022/02/28 11:19:05;;;;;;;11.30;2.20;;;;;;;1.50;64.94;102260.14;106028;1270;22558;-59
2022/02/28 11:21:38;;;;;;;9.60;1.40;;;;;;;1.54;62.32;102263.58;105538;1270;22562;-58
2022/02/28 11:24:10;;;;;;;9.30;1.40;;;;;;;1.53;62.76;102254.61;106094;1271;25356;-58
2022/02/28 11:26:42;;;;;;;10.40;1.50;;;;;;;1.54;63.81;102255.72;105969;1270;24380;-59